sensor_id;sensor_type;location;lat;lon;timestamp;P1;durP1;ratioP1;P2;durP2;ratioP2
11998;SDS011;40817;51.520;9.954;2022-08-21T00:01:53;6.72;;;3.67;;
11998;SDS011;40817;51.520;9.954;2022-08-21T00:04:21;5.45;;;4.25;;
11998;SDS011;40817;51.520;9.954;2022-08-21T00:06:49;5.22;;;3.92;;
11998;SDS011;40817;51.520;9.954;2022-08-21T00:09:19;5.60;;;4.28;;
11998;SDS011;40817;51.520;9.954;2022-08-21T00:11:48;5.78;;;4.25;;
11998;SDS011;40817;51.520;9.954;2022-08-21T00:14:16;5.93;;;4.25;;
11998;SDS011;40817;51.520;9.954;2022-08-21T00:16:44;5.90;;;3.85;;
11998;SDS011;40817;51.520;9.954;2022-08-21T00:19:12;4.78;;;3.65;;
11998;SDS011;40817;51.520;9.954;2022-08-21T00:21:39;5.32;;;3.95;;
11998;SDS011;40817;51.520;9.954;2022-08-21T00:24:07;4.65;;;3.65;;
11998;SDS011;40817;51.520;9.954;2022-08-21T00:26:35;6.88;;;3.60;;
11998;SDS011;40817;51.520;9.954;2022-08-21T00:29:04;4.38;;;3.75;;
11998;SDS011;40817;51.520;9.954;2022-08-21T00:31:31;4.43;;;3.30;;
11998;SDS011;40817;51.520;9.954;2022-08-21T00:33:59;4.85;;;3.65;;
11998;SDS011;40817;51.520;9.954;2022-08-21T00:36:27;4.18;;;3.78;;
11998;SDS011;40817;51.520;9.954;2022-08-21T00:38:55;5.70;;;3.38;;
11998;SDS011;40817;51.520;9.954;2022-08-21T00:41:23;5.55;;;3.40;;
11998;SDS011;40817;51.520;9.954;2022-08-21T00:43:52;7.75;;;3.85;;
11998;SDS011;40817;51.520;9.954;2022-08-21T00:46:22;5.68;;;3.67;;
11998;SDS011;40817;51.520;9.954;2022-08-21T00:48:50;4.70;;;3.63;;
11998;SDS011;40817;51.520;9.954;2022-08-21T00:51:19;5.55;;;3.50;;
11998;SDS011;40817;51.520;9.954;2022-08-21T00:53:56;4.20;;;3.30;;
11998;SDS011;40817;51.520;9.954;2022-08-21T00:56:27;5.32;;;3.40;;
11998;SDS011;40817;51.520;9.954;2022-08-21T00:58:55;5.75;;;3.65;;
11998;SDS011;40817;51.520;9.954;2022-08-21T01:01:27;6.05;;;3.58;;
11998;SDS011;40817;51.520;9.954;2022-08-21T01:03:54;5.60;;;3.67;;
11998;SDS011;40817;51.520;9.954;2022-08-21T01:06:22;5.00;;;3.15;;
11998;SDS011;40817;51.520;9.954;2022-08-21T01:08:50;4.78;;;3.85;;
11998;SDS011;40817;51.520;9.954;2022-08-21T01:11:18;5.53;;;3.90;;
11998;SDS011;40817;51.520;9.954;2022-08-21T01:13:46;4.70;;;3.40;;
11998;SDS011;40817;51.520;9.954;2022-08-21T01:16:17;4.20;;;3.25;;
11998;SDS011;40817;51.520;9.954;2022-08-21T01:18:50;4.22;;;3.53;;
11998;SDS011;40817;51.520;9.954;2022-08-21T01:21:20;5.88;;;3.70;;
11998;SDS011;40817;51.520;9.954;2022-08-21T01:23:52;5.72;;;3.60;;
11998;SDS011;40817;51.520;9.954;2022-08-21T01:26:23;4.43;;;3.55;;
11998;SDS011;40817;51.520;9.954;2022-08-21T01:28:56;5.72;;;3.60;;
11998;SDS011;40817;51.520;9.954;2022-08-21T01:31:33;5.75;;;4.28;;
11998;SDS011;40817;51.520;9.954;2022-08-21T01:34:03;5.68;;;3.53;;
11998;SDS011;40817;51.520;9.954;2022-08-21T01:36:32;5.07;;;3.83;;
11998;SDS011;40817;51.520;9.954;2022-08-21T01:39:01;4.53;;;3.20;;
11998;SDS011;40817;51.520;9.954;2022-08-21T01:41:31;5.55;;;3.85;;
11998;SDS011;40817;51.520;9.954;2022-08-21T01:44:00;4.15;;;3.22;;
11998;SDS011;40817;51.520;9.954;2022-08-21T01:46:28;4.97;;;3.45;;
11998;SDS011;40817;51.520;9.954;2022-08-21T01:48:55;5.38;;;3.70;;
11998;SDS011;40817;51.520;9.954;2022-08-21T01:51:23;7.05;;;3.50;;
11998;SDS011;40817;51.520;9.954;2022-08-21T01:53:53;5.78;;;3.67;;
11998;SDS011;40817;51.520;9.954;2022-08-21T01:56:20;4.68;;;3.20;;
11998;SDS011;40817;51.520;9.954;2022-08-21T01:58:49;5.15;;;3.55;;
11998;SDS011;40817;51.520;9.954;2022-08-21T02:01:17;4.38;;;3.53;;
11998;SDS011;40817;51.520;9.954;2022-08-21T02:03:44;4.78;;;3.65;;
11998;SDS011;40817;51.520;9.954;2022-08-21T02:06:13;5.75;;;3.60;;
11998;SDS011;40817;51.520;9.954;2022-08-21T02:08:43;4.03;;;3.33;;
11998;SDS011;40817;51.520;9.954;2022-08-21T02:11:13;4.78;;;3.65;;
11998;SDS011;40817;51.520;9.954;2022-08-21T02:13:41;5.70;;;3.90;;
11998;SDS011;40817;51.520;9.954;2022-08-21T02:16:09;4.72;;;3.70;;
11998;SDS011;40817;51.520;9.954;2022-08-21T02:18:38;6.75;;;4.00;;
11998;SDS011;40817;51.520;9.954;2022-08-21T02:21:06;4.32;;;2.95;;
11998;SDS011;40817;51.520;9.954;2022-08-21T02:23:35;5.45;;;3.75;;
11998;SDS011;40817;51.520;9.954;2022-08-21T02:26:05;4.95;;;3.55;;
11998;SDS011;40817;51.520;9.954;2022-08-21T02:28:36;6.03;;;3.80;;
11998;SDS011;40817;51.520;9.954;2022-08-21T02:31:05;4.05;;;3.33;;
11998;SDS011;40817;51.520;9.954;2022-08-21T02:33:33;4.25;;;3.15;;
11998;SDS011;40817;51.520;9.954;2022-08-21T02:36:01;4.80;;;3.40;;
11998;SDS011;40817;51.520;9.954;2022-08-21T02:38:31;4.90;;;3.42;;
11998;SDS011;40817;51.520;9.954;2022-08-21T02:41:03;6.13;;;3.72;;
11998;SDS011;40817;51.520;9.954;2022-08-21T02:43:33;5.65;;;3.78;;
11998;SDS011;40817;51.520;9.954;2022-08-21T02:46:03;4.10;;;3.20;;
11998;SDS011;40817;51.520;9.954;2022-08-21T02:48:37;4.70;;;3.13;;
11998;SDS011;40817;51.520;9.954;2022-08-21T02:51:07;5.20;;;4.15;;
11998;SDS011;40817;51.520;9.954;2022-08-21T02:53:38;4.78;;;3.53;;
11998;SDS011;40817;51.520;9.954;2022-08-21T02:56:08;3.83;;;3.20;;
11998;SDS011;40817;51.520;9.954;2022-08-21T02:58:44;4.40;;;3.17;;
11998;SDS011;40817;51.520;9.954;2022-08-21T03:01:16;5.65;;;3.67;;
11998;SDS011;40817;51.520;9.954;2022-08-21T03:03:46;4.60;;;3.50;;
11998;SDS011;40817;51.520;9.954;2022-08-21T03:06:16;6.20;;;3.65;;
11998;SDS011;40817;51.520;9.954;2022-08-21T03:08:47;5.28;;;3.63;;
11998;SDS011;40817;51.520;9.954;2022-08-21T03:11:16;6.30;;;3.97;;
11998;SDS011;40817;51.520;9.954;2022-08-21T03:13:45;7.32;;;4.20;;
11998;SDS011;40817;51.520;9.954;2022-08-21T03:16:13;4.70;;;3.80;;
11998;SDS011;40817;51.520;9.954;2022-08-21T03:18:41;7.75;;;4.43;;
11998;SDS011;40817;51.520;9.954;2022-08-21T03:21:09;5.20;;;3.83;;
11998;SDS011;40817;51.520;9.954;2022-08-21T03:23:38;4.45;;;3.67;;
11998;SDS011;40817;51.520;9.954;2022-08-21T03:26:07;6.35;;;3.80;;
11998;SDS011;40817;51.520;9.954;2022-08-21T03:28:36;4.60;;;4.05;;
11998;SDS011;40817;51.520;9.954;2022-08-21T03:31:05;5.57;;;3.83;;
11998;SDS011;40817;51.520;9.954;2022-08-21T03:33:34;4.75;;;3.72;;
11998;SDS011;40817;51.520;9.954;2022-08-21T03:36:03;5.90;;;3.80;;
11998;SDS011;40817;51.520;9.954;2022-08-21T03:38:35;6.22;;;4.32;;
11998;SDS011;40817;51.520;9.954;2022-08-21T03:41:05;4.90;;;3.50;;
11998;SDS011;40817;51.520;9.954;2022-08-21T03:43:33;5.05;;;3.70;;
11998;SDS011;40817;51.520;9.954;2022-08-21T03:46:03;6.05;;;4.20;;
11998;SDS011;40817;51.520;9.954;2022-08-21T03:48:34;4.95;;;3.70;;
11998;SDS011;40817;51.520;9.954;2022-08-21T03:51:04;5.55;;;3.80;;
11998;SDS011;40817;51.520;9.954;2022-08-21T03:53:33;4.70;;;3.88;;
11998;SDS011;40817;51.520;9.954;2022-08-21T03:56:01;6.78;;;4.40;;
11998;SDS011;40817;51.520;9.954;2022-08-21T03:58:31;7.35;;;4.57;;
11998;SDS011;40817;51.520;9.954;2022-08-21T04:01:00;5.65;;;4.20;;
11998;SDS011;40817;51.520;9.954;2022-08-21T04:03:31;8.02;;;4.30;;
11998;SDS011;40817;51.520;9.954;2022-08-21T04:06:02;6.82;;;4.20;;
11998;SDS011;40817;51.520;9.954;2022-08-21T04:08:30;5.30;;;4.28;;
11998;SDS011;40817;51.520;9.954;2022-08-21T04:10:59;4.93;;;3.92;;
11998;SDS011;40817;51.520;9.954;2022-08-21T04:13:27;6.97;;;4.80;;
11998;SDS011;40817;51.520;9.954;2022-08-21T04:15:55;5.95;;;4.80;;
11998;SDS011;40817;51.520;9.954;2022-08-21T04:18:24;6.10;;;4.43;;
11998;SDS011;40817;51.520;9.954;2022-08-21T04:20:53;5.38;;;4.78;;
11998;SDS011;40817;51.520;9.954;2022-08-21T04:23:24;5.45;;;4.40;;
11998;SDS011;40817;51.520;9.954;2022-08-21T04:25:52;5.32;;;4.22;;
11998;SDS011;40817;51.520;9.954;2022-08-21T04:28:23;5.38;;;4.47;;
11998;SDS011;40817;51.520;9.954;2022-08-21T04:30:53;6.85;;;4.70;;
11998;SDS011;40817;51.520;9.954;2022-08-21T04:33:22;5.60;;;4.07;;
11998;SDS011;40817;51.520;9.954;2022-08-21T04:35:50;4.78;;;4.22;;
11998;SDS011;40817;51.520;9.954;2022-08-21T04:38:19;4.53;;;4.10;;
11998;SDS011;40817;51.520;9.954;2022-08-21T04:40:47;7.10;;;5.20;;
11998;SDS011;40817;51.520;9.954;2022-08-21T04:43:17;6.30;;;5.28;;
11998;SDS011;40817;51.520;9.954;2022-08-21T04:45:47;7.70;;;5.30;;
11998;SDS011;40817;51.520;9.954;2022-08-21T04:48:18;8.18;;;5.43;;
11998;SDS011;40817;51.520;9.954;2022-08-21T04:50:50;6.57;;;5.60;;
11998;SDS011;40817;51.520;9.954;2022-08-21T04:53:24;7.32;;;5.57;;
11998;SDS011;40817;51.520;9.954;2022-08-21T04:56:05;8.55;;;5.30;;
11998;SDS011;40817;51.520;9.954;2022-08-21T04:58:38;5.50;;;4.70;;
11998;SDS011;40817;51.520;9.954;2022-08-21T05:01:08;5.32;;;4.53;;
11998;SDS011;40817;51.520;9.954;2022-08-21T05:03:42;6.57;;;5.13;;
11998;SDS011;40817;51.520;9.954;2022-08-21T05:06:13;7.28;;;5.35;;
11998;SDS011;40817;51.520;9.954;2022-08-21T05:08:43;7.95;;;5.70;;
11998;SDS011;40817;51.520;9.954;2022-08-21T05:11:14;6.70;;;4.80;;
11998;SDS011;40817;51.520;9.954;2022-08-21T05:13:42;6.88;;;5.53;;
11998;SDS011;40817;51.520;9.954;2022-08-21T05:16:10;7.75;;;6.07;;
11998;SDS011;40817;51.520;9.954;2022-08-21T05:18:38;6.90;;;6.00;;
11998;SDS011;40817;51.520;9.954;2022-08-21T05:21:06;8.10;;;6.38;;
11998;SDS011;40817;51.520;9.954;2022-08-21T05:23:36;8.38;;;5.95;;
11998;SDS011;40817;51.520;9.954;2022-08-21T05:26:04;8.98;;;6.57;;
11998;SDS011;40817;51.520;9.954;2022-08-21T05:28:31;8.02;;;5.60;;
11998;SDS011;40817;51.520;9.954;2022-08-21T05:30:59;6.88;;;5.55;;
11998;SDS011;40817;51.520;9.954;2022-08-21T05:33:28;7.20;;;5.55;;
11998;SDS011;40817;51.520;9.954;2022-08-21T05:35:56;6.88;;;5.57;;
11998;SDS011;40817;51.520;9.954;2022-08-21T05:38:24;5.93;;;4.30;;
11998;SDS011;40817;51.520;9.954;2022-08-21T05:40:55;7.72;;;5.55;;
11998;SDS011;40817;51.520;9.954;2022-08-21T05:43:23;7.88;;;4.78;;
11998;SDS011;40817;51.520;9.954;2022-08-21T05:45:50;7.20;;;4.95;;
11998;SDS011;40817;51.520;9.954;2022-08-21T05:48:19;8.32;;;4.72;;
11998;SDS011;40817;51.520;9.954;2022-08-21T05:50:50;7.05;;;5.35;;
11998;SDS011;40817;51.520;9.954;2022-08-21T05:53:20;7.03;;;5.43;;
11998;SDS011;40817;51.520;9.954;2022-08-21T05:55:50;6.28;;;5.00;;
11998;SDS011;40817;51.520;9.954;2022-08-21T05:58:20;8.00;;;5.28;;
11998;SDS011;40817;51.520;9.954;2022-08-21T06:00:49;6.22;;;4.80;;
11998;SDS011;40817;51.520;9.954;2022-08-21T06:03:19;6.85;;;4.95;;
11998;SDS011;40817;51.520;9.954;2022-08-21T06:05:50;7.00;;;5.20;;
11998;SDS011;40817;51.520;9.954;2022-08-21T06:08:19;8.38;;;4.82;;
11998;SDS011;40817;51.520;9.954;2022-08-21T06:10:49;6.70;;;5.70;;
11998;SDS011;40817;51.520;9.954;2022-08-21T06:13:21;6.40;;;5.20;;
11998;SDS011;40817;51.520;9.954;2022-08-21T06:15:50;7.75;;;5.28;;
11998;SDS011;40817;51.520;9.954;2022-08-21T06:18:28;7.68;;;5.55;;
11998;SDS011;40817;51.520;9.954;2022-08-21T06:20:56;7.60;;;6.00;;
11998;SDS011;40817;51.520;9.954;2022-08-21T06:23:24;10.52;;;6.47;;
11998;SDS011;40817;51.520;9.954;2022-08-21T06:25:52;8.18;;;5.63;;
11998;SDS011;40817;51.520;9.954;2022-08-21T06:28:21;7.80;;;5.50;;
11998;SDS011;40817;51.520;9.954;2022-08-21T06:30:49;8.90;;;5.70;;
11998;SDS011;40817;51.520;9.954;2022-08-21T06:33:17;5.78;;;4.88;;
11998;SDS011;40817;51.520;9.954;2022-08-21T06:35:45;9.43;;;5.25;;
11998;SDS011;40817;51.520;9.954;2022-08-21T06:38:13;7.07;;;5.30;;
11998;SDS011;40817;51.520;9.954;2022-08-21T06:40:41;6.43;;;4.47;;
11998;SDS011;40817;51.520;9.954;2022-08-21T06:43:10;6.85;;;4.63;;
11998;SDS011;40817;51.520;9.954;2022-08-21T06:45:44;8.43;;;4.90;;
11998;SDS011;40817;51.520;9.954;2022-08-21T06:48:12;6.32;;;4.40;;
11998;SDS011;40817;51.520;9.954;2022-08-21T06:50:40;7.30;;;4.78;;
11998;SDS011;40817;51.520;9.954;2022-08-21T06:53:09;7.63;;;5.15;;
11998;SDS011;40817;51.520;9.954;2022-08-21T06:55:40;8.80;;;5.18;;
11998;SDS011;40817;51.520;9.954;2022-08-21T06:58:08;6.65;;;5.13;;
11998;SDS011;40817;51.520;9.954;2022-08-21T07:00:38;5.25;;;3.45;;
11998;SDS011;40817;51.520;9.954;2022-08-21T07:03:17;7.90;;;5.30;;
11998;SDS011;40817;51.520;9.954;2022-08-21T07:05:52;4.53;;;3.80;;
11998;SDS011;40817;51.520;9.954;2022-08-21T07:08:22;7.53;;;5.20;;
11998;SDS011;40817;51.520;9.954;2022-08-21T07:10:50;9.18;;;5.68;;
11998;SDS011;40817;51.520;9.954;2022-08-21T07:13:19;7.55;;;5.35;;
11998;SDS011;40817;51.520;9.954;2022-08-21T07:15:47;8.52;;;4.57;;
11998;SDS011;40817;51.520;9.954;2022-08-21T07:18:15;10.45;;;5.63;;
11998;SDS011;40817;51.520;9.954;2022-08-21T07:20:44;5.38;;;2.80;;
11998;SDS011;40817;51.520;9.954;2022-08-21T07:23:15;7.30;;;5.43;;
11998;SDS011;40817;51.520;9.954;2022-08-21T07:25:51;9.05;;;5.50;;
11998;SDS011;40817;51.520;9.954;2022-08-21T07:28:19;7.35;;;4.95;;
11998;SDS011;40817;51.520;9.954;2022-08-21T07:30:49;7.40;;;4.75;;
11998;SDS011;40817;51.520;9.954;2022-08-21T07:33:21;9.85;;;5.45;;
11998;SDS011;40817;51.520;9.954;2022-08-21T07:35:49;9.60;;;5.60;;
11998;SDS011;40817;51.520;9.954;2022-08-21T07:38:17;9.55;;;5.28;;
11998;SDS011;40817;51.520;9.954;2022-08-21T07:40:45;8.57;;;5.68;;
11998;SDS011;40817;51.520;9.954;2022-08-21T07:43:15;9.25;;;5.30;;
11998;SDS011;40817;51.520;9.954;2022-08-21T07:45:43;11.60;;;6.05;;
11998;SDS011;40817;51.520;9.954;2022-08-21T07:48:11;9.85;;;5.53;;
11998;SDS011;40817;51.520;9.954;2022-08-21T07:50:40;10.13;;;6.03;;
11998;SDS011;40817;51.520;9.954;2022-08-21T07:53:09;8.60;;;5.10;;
11998;SDS011;40817;51.520;9.954;2022-08-21T07:55:37;9.95;;;5.57;;
11998;SDS011;40817;51.520;9.954;2022-08-21T07:58:05;7.55;;;3.45;;
11998;SDS011;40817;51.520;9.954;2022-08-21T08:00:33;8.52;;;4.97;;
11998;SDS011;40817;51.520;9.954;2022-08-21T08:03:01;9.68;;;5.25;;
11998;SDS011;40817;51.520;9.954;2022-08-21T08:05:29;8.00;;;5.13;;
11998;SDS011;40817;51.520;9.954;2022-08-21T08:08:03;8.68;;;5.15;;
11998;SDS011;40817;51.520;9.954;2022-08-21T08:10:31;11.85;;;5.63;;
11998;SDS011;40817;51.520;9.954;2022-08-21T08:12:59;9.52;;;4.90;;
11998;SDS011;40817;51.520;9.954;2022-08-21T08:15:27;10.88;;;5.85;;
11998;SDS011;40817;51.520;9.954;2022-08-21T08:17:55;6.32;;;4.13;;
11998;SDS011;40817;51.520;9.954;2022-08-21T08:20:23;12.57;;;5.68;;
11998;SDS011;40817;51.520;9.954;2022-08-21T08:22:52;10.52;;;5.88;;
11998;SDS011;40817;51.520;9.954;2022-08-21T08:25:22;10.82;;;5.55;;
11998;SDS011;40817;51.520;9.954;2022-08-21T08:27:52;12.18;;;5.47;;
11998;SDS011;40817;51.520;9.954;2022-08-21T08:30:20;11.75;;;5.95;;
11998;SDS011;40817;51.520;9.954;2022-08-21T08:32:49;10.13;;;5.70;;
11998;SDS011;40817;51.520;9.954;2022-08-21T08:35:17;9.57;;;5.85;;
11998;SDS011;40817;51.520;9.954;2022-08-21T08:37:45;9.05;;;3.80;;
11998;SDS011;40817;51.520;9.954;2022-08-21T08:40:14;10.38;;;5.22;;
11998;SDS011;40817;51.520;9.954;2022-08-21T08:42:54;8.40;;;5.32;;
11998;SDS011;40817;51.520;9.954;2022-08-21T08:45:22;8.50;;;5.85;;
11998;SDS011;40817;51.520;9.954;2022-08-21T08:47:53;9.07;;;5.00;;
11998;SDS011;40817;51.520;9.954;2022-08-21T08:50:28;9.07;;;5.70;;
11998;SDS011;40817;51.520;9.954;2022-08-21T08:53:07;9.13;;;5.75;;
11998;SDS011;40817;51.520;9.954;2022-08-21T08:55:44;9.13;;;4.50;;
11998;SDS011;40817;51.520;9.954;2022-08-21T08:58:15;9.65;;;4.88;;
11998;SDS011;40817;51.520;9.954;2022-08-21T09:00:51;15.10;;;5.80;;
11998;SDS011;40817;51.520;9.954;2022-08-21T09:03:21;8.70;;;4.97;;
11998;SDS011;40817;51.520;9.954;2022-08-21T09:05:53;10.48;;;5.10;;
11998;SDS011;40817;51.520;9.954;2022-08-21T09:08:37;8.88;;;5.75;;
11998;SDS011;40817;51.520;9.954;2022-08-21T09:11:20;7.50;;;3.92;;
11998;SDS011;40817;51.520;9.954;2022-08-21T09:13:58;13.70;;;5.15;;
11998;SDS011;40817;51.520;9.954;2022-08-21T09:16:39;7.60;;;4.03;;
11998;SDS011;40817;51.520;9.954;2022-08-21T09:19:24;8.73;;;3.72;;
11998;SDS011;40817;51.520;9.954;2022-08-21T09:22:13;11.27;;;3.97;;
11998;SDS011;40817;51.520;9.954;2022-08-21T09:24:59;9.70;;;4.10;;
11998;SDS011;40817;51.520;9.954;2022-08-21T09:27:38;9.13;;;3.17;;
11998;SDS011;40817;51.520;9.954;2022-08-21T09:30:07;6.60;;;3.25;;
11998;SDS011;40817;51.520;9.954;2022-08-21T09:32:37;8.70;;;3.90;;
11998;SDS011;40817;51.520;9.954;2022-08-21T09:35:07;5.88;;;3.13;;
11998;SDS011;40817;51.520;9.954;2022-08-21T09:37:47;9.68;;;3.45;;
11998;SDS011;40817;51.520;9.954;2022-08-21T09:40:23;7.22;;;2.25;;
11998;SDS011;40817;51.520;9.954;2022-08-21T09:43:01;5.63;;;2.25;;
11998;SDS011;40817;51.520;9.954;2022-08-21T09:45:33;8.55;;;2.80;;
11998;SDS011;40817;51.520;9.954;2022-08-21T09:48:09;7.78;;;2.60;;
11998;SDS011;40817;51.520;9.954;2022-08-21T09:50:41;7.65;;;2.72;;
11998;SDS011;40817;51.520;9.954;2022-08-21T09:53:16;8.57;;;3.03;;
11998;SDS011;40817;51.520;9.954;2022-08-21T09:55:51;10.77;;;3.03;;
11998;SDS011;40817;51.520;9.954;2022-08-21T09:58:43;6.45;;;2.45;;
11998;SDS011;40817;51.520;9.954;2022-08-21T10:01:15;8.23;;;2.72;;
11998;SDS011;40817;51.520;9.954;2022-08-21T10:03:47;7.85;;;2.80;;
11998;SDS011;40817;51.520;9.954;2022-08-21T10:06:25;8.18;;;3.03;;
11998;SDS011;40817;51.520;9.954;2022-08-21T10:09:03;10.35;;;2.55;;
11998;SDS011;40817;51.520;9.954;2022-08-21T10:11:36;9.13;;;2.75;;
11998;SDS011;40817;51.520;9.954;2022-08-21T10:14:10;8.52;;;2.72;;
11998;SDS011;40817;51.520;9.954;2022-08-21T10:16:52;9.10;;;3.03;;
11998;SDS011;40817;51.520;9.954;2022-08-21T10:19:32;8.02;;;2.58;;
11998;SDS011;40817;51.520;9.954;2022-08-21T10:22:13;9.57;;;2.53;;
11998;SDS011;40817;51.520;9.954;2022-08-21T10:25:10;9.40;;;2.78;;
11998;SDS011;40817;51.520;9.954;2022-08-21T10:27:50;7.30;;;2.33;;
11998;SDS011;40817;51.520;9.954;2022-08-21T10:30:31;7.10;;;2.65;;
11998;SDS011;40817;51.520;9.954;2022-08-21T10:33:13;7.07;;;2.45;;
11998;SDS011;40817;51.520;9.954;2022-08-21T10:36:05;6.32;;;2.55;;
11998;SDS011;40817;51.520;9.954;2022-08-21T10:38:45;7.57;;;2.60;;
11998;SDS011;40817;51.520;9.954;2022-08-21T10:41:44;11.20;;;2.35;;
11998;SDS011;40817;51.520;9.954;2022-08-21T10:44:44;8.48;;;2.35;;
11998;SDS011;40817;51.520;9.954;2022-08-21T10:47:32;6.00;;;2.60;;
11998;SDS011;40817;51.520;9.954;2022-08-21T10:50:08;6.32;;;2.20;;
11998;SDS011;40817;51.520;9.954;2022-08-21T10:52:49;6.65;;;2.53;;
11998;SDS011;40817;51.520;9.954;2022-08-21T10:55:55;5.72;;;2.08;;
11998;SDS011;40817;51.520;9.954;2022-08-21T10:58:29;6.68;;;2.20;;
11998;SDS011;40817;51.520;9.954;2022-08-21T11:01:04;6.93;;;2.30;;
11998;SDS011;40817;51.520;9.954;2022-08-21T11:03:41;6.22;;;2.47;;
11998;SDS011;40817;51.520;9.954;2022-08-21T11:06:12;5.57;;;2.22;;
11998;SDS011;40817;51.520;9.954;2022-08-21T11:08:46;5.88;;;2.10;;
11998;SDS011;40817;51.520;9.954;2022-08-21T11:11:23;8.50;;;2.03;;
11998;SDS011;40817;51.520;9.954;2022-08-21T11:13:58;6.22;;;2.20;;
11998;SDS011;40817;51.520;9.954;2022-08-21T11:16:32;7.43;;;2.47;;
11998;SDS011;40817;51.520;9.954;2022-08-21T11:19:15;4.93;;;2.15;;
11998;SDS011;40817;51.520;9.954;2022-08-21T11:21:50;4.50;;;2.08;;
11998;SDS011;40817;51.520;9.954;2022-08-21T11:24:29;7.70;;;1.75;;
11998;SDS011;40817;51.520;9.954;2022-08-21T11:27:06;3.92;;;1.77;;
11998;SDS011;40817;51.520;9.954;2022-08-21T11:29:52;4.63;;;1.83;;
11998;SDS011;40817;51.520;9.954;2022-08-21T11:32:29;5.85;;;1.77;;
11998;SDS011;40817;51.520;9.954;2022-08-21T11:35:26;6.30;;;2.20;;
11998;SDS011;40817;51.520;9.954;2022-08-21T11:38:16;4.93;;;1.80;;
11998;SDS011;40817;51.520;9.954;2022-08-21T11:40:58;9.30;;;2.25;;
11998;SDS011;40817;51.520;9.954;2022-08-21T11:43:48;4.72;;;1.80;;
11998;SDS011;40817;51.520;9.954;2022-08-21T11:46:29;4.65;;;1.67;;
11998;SDS011;40817;51.520;9.954;2022-08-21T11:49:14;6.10;;;1.73;;
11998;SDS011;40817;51.520;9.954;2022-08-21T11:52:11;2.95;;;1.50;;
11998;SDS011;40817;51.520;9.954;2022-08-21T11:54:49;4.30;;;1.58;;
11998;SDS011;40817;51.520;9.954;2022-08-21T11:57:24;12.52;;;1.80;;
11998;SDS011;40817;51.520;9.954;2022-08-21T12:00:16;4.45;;;2.10;;
11998;SDS011;40817;51.520;9.954;2022-08-21T12:02:53;7.40;;;2.03;;
11998;SDS011;40817;51.520;9.954;2022-08-21T12:05:27;5.90;;;1.55;;
11998;SDS011;40817;51.520;9.954;2022-08-21T12:08:02;4.97;;;1.40;;
11998;SDS011;40817;51.520;9.954;2022-08-21T12:10:37;6.22;;;1.70;;
11998;SDS011;40817;51.520;9.954;2022-08-21T12:13:11;3.97;;;1.60;;
11998;SDS011;40817;51.520;9.954;2022-08-21T12:15:51;4.20;;;1.80;;
11998;SDS011;40817;51.520;9.954;2022-08-21T12:18:23;5.85;;;1.85;;
11998;SDS011;40817;51.520;9.954;2022-08-21T12:20:59;3.05;;;1.70;;
11998;SDS011;40817;51.520;9.954;2022-08-21T12:23:45;3.10;;;1.52;;
11998;SDS011;40817;51.520;9.954;2022-08-21T12:26:26;3.55;;;1.70;;
11998;SDS011;40817;51.520;9.954;2022-08-21T12:29:05;5.57;;;1.50;;
11998;SDS011;40817;51.520;9.954;2022-08-21T12:31:52;3.95;;;1.35;;
11998;SDS011;40817;51.520;9.954;2022-08-21T12:34:34;5.65;;;1.63;;
11998;SDS011;40817;51.520;9.954;2022-08-21T12:37:09;5.05;;;1.50;;
11998;SDS011;40817;51.520;9.954;2022-08-21T12:39:50;3.45;;;1.50;;
11998;SDS011;40817;51.520;9.954;2022-08-21T12:42:24;3.05;;;1.25;;
11998;SDS011;40817;51.520;9.954;2022-08-21T12:45:07;2.80;;;1.35;;
11998;SDS011;40817;51.520;9.954;2022-08-21T12:47:45;3.28;;;1.25;;
11998;SDS011;40817;51.520;9.954;2022-08-21T12:50:29;4.75;;;1.25;;
11998;SDS011;40817;51.520;9.954;2022-08-21T12:53:07;5.07;;;1.70;;
11998;SDS011;40817;51.520;9.954;2022-08-21T12:55:47;3.10;;;1.50;;
11998;SDS011;40817;51.520;9.954;2022-08-21T12:58:18;6.32;;;1.65;;
11998;SDS011;40817;51.520;9.954;2022-08-21T13:00:48;3.65;;;1.55;;
11998;SDS011;40817;51.520;9.954;2022-08-21T13:03:21;4.28;;;1.98;;
11998;SDS011;40817;51.520;9.954;2022-08-21T13:05:49;4.25;;;1.75;;
11998;SDS011;40817;51.520;9.954;2022-08-21T13:08:19;3.72;;;1.52;;
11998;SDS011;40817;51.520;9.954;2022-08-21T13:10:57;3.00;;;1.50;;
11998;SDS011;40817;51.520;9.954;2022-08-21T13:13:30;2.88;;;1.20;;
11998;SDS011;40817;51.520;9.954;2022-08-21T13:15:59;3.65;;;1.40;;
11998;SDS011;40817;51.520;9.954;2022-08-21T13:18:32;4.75;;;1.45;;
11998;SDS011;40817;51.520;9.954;2022-08-21T13:21:19;3.67;;;1.30;;
11998;SDS011;40817;51.520;9.954;2022-08-21T13:23:47;4.15;;;1.30;;
11998;SDS011;40817;51.520;9.954;2022-08-21T13:26:17;2.40;;;1.00;;
11998;SDS011;40817;51.520;9.954;2022-08-21T13:28:48;3.55;;;1.38;;
11998;SDS011;40817;51.520;9.954;2022-08-21T13:31:17;2.75;;;1.63;;
11998;SDS011;40817;51.520;9.954;2022-08-21T13:33:53;3.20;;;1.42;;
11998;SDS011;40817;51.520;9.954;2022-08-21T13:36:24;2.75;;;1.40;;
11998;SDS011;40817;51.520;9.954;2022-08-21T13:38:56;2.75;;;1.13;;
11998;SDS011;40817;51.520;9.954;2022-08-21T13:41:26;2.15;;;1.23;;
11998;SDS011;40817;51.520;9.954;2022-08-21T13:43:58;3.47;;;1.13;;
11998;SDS011;40817;51.520;9.954;2022-08-21T13:46:30;2.35;;;1.33;;
11998;SDS011;40817;51.520;9.954;2022-08-21T13:49:03;4.00;;;1.45;;
11998;SDS011;40817;51.520;9.954;2022-08-21T13:51:32;4.35;;;1.38;;
11998;SDS011;40817;51.520;9.954;2022-08-21T13:54:02;3.47;;;1.92;;
11998;SDS011;40817;51.520;9.954;2022-08-21T13:56:48;2.15;;;1.20;;
11998;SDS011;40817;51.520;9.954;2022-08-21T13:59:23;3.42;;;1.27;;
11998;SDS011;40817;51.520;9.954;2022-08-21T14:01:55;5.43;;;1.63;;
11998;SDS011;40817;51.520;9.954;2022-08-21T14:04:31;2.88;;;1.15;;
11998;SDS011;40817;51.520;9.954;2022-08-21T14:07:13;4.90;;;1.60;;
11998;SDS011;40817;51.520;9.954;2022-08-21T14:09:45;4.72;;;1.40;;
11998;SDS011;40817;51.520;9.954;2022-08-21T14:12:16;3.60;;;1.45;;
11998;SDS011;40817;51.520;9.954;2022-08-21T14:14:53;2.83;;;1.42;;
11998;SDS011;40817;51.520;9.954;2022-08-21T14:17:28;6.65;;;1.85;;
11998;SDS011;40817;51.520;9.954;2022-08-21T14:19:59;3.22;;;1.40;;
11998;SDS011;40817;51.520;9.954;2022-08-21T14:22:27;4.22;;;1.40;;
11998;SDS011;40817;51.520;9.954;2022-08-21T14:25:05;4.35;;;1.50;;
11998;SDS011;40817;51.520;9.954;2022-08-21T14:27:39;3.95;;;1.40;;
11998;SDS011;40817;51.520;9.954;2022-08-21T14:30:17;4.40;;;1.65;;
11998;SDS011;40817;51.520;9.954;2022-08-21T14:32:53;2.92;;;1.40;;
11998;SDS011;40817;51.520;9.954;2022-08-21T14:35:21;3.60;;;1.42;;
11998;SDS011;40817;51.520;9.954;2022-08-21T14:37:49;2.40;;;1.13;;
11998;SDS011;40817;51.520;9.954;2022-08-21T14:40:18;4.05;;;1.20;;
11998;SDS011;40817;51.520;9.954;2022-08-21T14:42:51;3.42;;;1.58;;
11998;SDS011;40817;51.520;9.954;2022-08-21T14:45:23;3.58;;;1.23;;
11998;SDS011;40817;51.520;9.954;2022-08-21T14:47:54;2.08;;;1.30;;
11998;SDS011;40817;51.520;9.954;2022-08-21T14:50:23;3.63;;;1.45;;
11998;SDS011;40817;51.520;9.954;2022-08-21T14:52:52;3.28;;;1.30;;
11998;SDS011;40817;51.520;9.954;2022-08-21T14:55:19;1.95;;;1.20;;
11998;SDS011;40817;51.520;9.954;2022-08-21T14:57:47;2.75;;;1.52;;
11998;SDS011;40817;51.520;9.954;2022-08-21T15:00:21;3.80;;;1.27;;
11998;SDS011;40817;51.520;9.954;2022-08-21T15:02:53;3.55;;;1.30;;
11998;SDS011;40817;51.520;9.954;2022-08-21T15:05:20;2.50;;;1.15;;
11998;SDS011;40817;51.520;9.954;2022-08-21T15:07:48;3.75;;;1.40;;
11998;SDS011;40817;51.520;9.954;2022-08-21T15:10:16;3.75;;;1.60;;
11998;SDS011;40817;51.520;9.954;2022-08-21T15:12:44;3.22;;;1.15;;
11998;SDS011;40817;51.520;9.954;2022-08-21T15:15:13;2.33;;;1.10;;
11998;SDS011;40817;51.520;9.954;2022-08-21T15:17:40;3.00;;;1.30;;
11998;SDS011;40817;51.520;9.954;2022-08-21T15:20:09;2.80;;;1.30;;